createdAt,value
2018-12-12T00:00:06.627Z,7.37
2018-12-12T00:02:34.784Z,9.57
2018-12-12T00:05:03.169Z,7.60
2018-12-12T00:07:31.456Z,7.23
2018-12-12T00:09:59.653Z,8.93
2018-12-12T00:12:27.746Z,8.50
2018-12-12T00:14:56.051Z,7.23
2018-12-12T00:17:25.335Z,8.43
2018-12-12T00:19:53.646Z,8.33
2018-12-12T00:22:21.712Z,7.87
2018-12-12T00:24:50.286Z,6.50
2018-12-12T00:27:18.596Z,8.40
2018-12-12T00:29:46.720Z,8.70
2018-12-12T00:32:15.019Z,7.73
2018-12-12T00:34:43.142Z,8.03
2018-12-12T00:37:11.540Z,7.23
2018-12-12T00:39:39.838Z,8.30
2018-12-12T00:42:08.182Z,8.97
2018-12-12T00:44:36.354Z,8.33
2018-12-12T00:47:05.138Z,7.07
2018-12-12T00:49:33.466Z,7.37
2018-12-12T00:52:01.640Z,7.10
2018-12-12T00:54:30.501Z,8.87
2018-12-12T00:56:58.780Z,8.43
2018-12-12T00:59:27.012Z,6.93
2018-12-12T01:01:55.380Z,6.17
2018-12-12T01:04:23.644Z,6.63
2018-12-12T01:06:51.752Z,7.67
2018-12-12T01:09:19.842Z,5.97
2018-12-12T01:11:53.526Z,8.53
2018-12-12T01:14:21.690Z,5.70
2018-12-12T01:16:50.012Z,5.50
2018-12-12T01:19:18.144Z,4.90
2018-12-12T01:21:46.328Z,5.77
2018-12-12T01:24:14.441Z,6.17
2018-12-12T01:26:42.749Z,5.87
2018-12-12T01:29:10.893Z,4.77
2018-12-12T01:31:39.139Z,4.33
2018-12-12T01:34:07.405Z,4.80
2018-12-12T01:36:35.451Z,4.77
2018-12-12T01:39:06.210Z,4.93
2018-12-12T01:41:34.595Z,3.70
2018-12-12T01:44:02.807Z,4.27
2018-12-12T01:46:30.990Z,4.40
2018-12-12T01:48:59.117Z,4.87
2018-12-12T01:51:27.283Z,4.13
2018-12-12T01:53:55.441Z,4.20
2018-12-12T01:56:23.699Z,4.57
2018-12-12T01:58:51.773Z,4.23
2018-12-12T02:01:20.092Z,5.13
2018-12-12T02:03:48.196Z,3.53
2018-12-12T02:06:16.292Z,3.33
2018-12-12T02:08:46.248Z,3.93
2018-12-12T02:11:14.732Z,3.63
2018-12-12T02:13:42.847Z,3.50
2018-12-12T02:16:11.148Z,3.50
2018-12-12T02:18:42.204Z,3.77
2018-12-12T02:21:10.437Z,3.50
2018-12-12T02:23:38.544Z,3.03
2018-12-12T02:26:06.635Z,3.73
2018-12-12T02:28:34.944Z,4.17
2018-12-12T02:31:03.173Z,3.50
2018-12-12T02:33:31.484Z,4.23
2018-12-12T02:35:59.775Z,4.70
2018-12-12T02:38:27.895Z,4.00
2018-12-12T02:40:56.686Z,5.40
2018-12-12T02:43:25.305Z,3.80
2018-12-12T02:45:53.414Z,4.50
2018-12-12T02:48:21.752Z,3.80
2018-12-12T02:50:49.898Z,3.97
2018-12-12T02:53:18.179Z,4.57
2018-12-12T02:55:46.906Z,4.70
2018-12-12T02:58:15.244Z,5.73
2018-12-12T03:00:43.468Z,6.30
2018-12-12T03:03:11.754Z,4.67
2018-12-12T03:05:40.502Z,4.73
2018-12-12T03:08:08.930Z,4.97
2018-12-12T03:10:37.015Z,4.70
2018-12-12T03:13:05.260Z,4.97
2018-12-12T03:15:33.485Z,4.50
2018-12-12T03:18:01.799Z,5.63
2018-12-12T03:20:30.074Z,5.50
2018-12-12T03:22:58.201Z,4.07
2018-12-12T03:25:26.364Z,5.60
2018-12-12T03:27:54.467Z,5.63
2018-12-12T03:30:22.684Z,5.97
2018-12-12T03:32:50.991Z,5.30
2018-12-12T03:35:19.112Z,4.60
2018-12-12T03:37:47.312Z,8.37
2018-12-12T03:40:15.661Z,5.53
2018-12-12T03:42:44.650Z,5.70
2018-12-12T03:45:12.747Z,4.70
2018-12-12T03:47:40.921Z,5.30
2018-12-12T03:50:09.404Z,4.53
2018-12-12T03:52:37.722Z,4.67
2018-12-12T03:55:06.497Z,4.70
2018-12-12T03:57:34.629Z,4.30
2018-12-12T04:00:03.070Z,5.80
2018-12-12T04:02:32.069Z,5.67
2018-12-12T04:05:00.192Z,4.93
2018-12-12T04:07:29.448Z,5.93
2018-12-12T04:09:57.899Z,4.30
2018-12-12T04:12:26.685Z,5.60
2018-12-12T04:14:54.835Z,5.97
2018-12-12T04:17:24.166Z,4.80
2018-12-12T04:19:52.946Z,4.63
2018-12-12T04:22:22.210Z,6.77
2018-12-12T04:24:51.315Z,4.73
2018-12-12T04:27:20.348Z,5.70
2018-12-12T04:29:48.695Z,5.70
2018-12-12T04:32:16.791Z,5.60
2018-12-12T04:34:45.073Z,6.30
2018-12-12T04:37:13.309Z,4.90
2018-12-12T04:39:41.632Z,5.97
2018-12-12T04:42:09.996Z,7.13
2018-12-12T04:44:38.327Z,5.47
2018-12-12T04:47:06.511Z,5.53
2018-12-12T04:49:34.810Z,6.50
2018-12-12T04:52:02.998Z,6.27
2018-12-12T04:54:32.166Z,6.77
2018-12-12T04:57:00.871Z,6.40
2018-12-12T04:59:29.834Z,5.30
2018-12-12T05:01:58.911Z,7.50
2018-12-12T05:04:27.257Z,5.13
2018-12-12T05:06:55.419Z,7.10
2018-12-12T05:09:24.398Z,6.60
2018-12-12T05:11:53.648Z,7.67
2018-12-12T05:14:21.897Z,5.17
2018-12-12T05:16:50.053Z,4.50
2018-12-12T05:19:18.954Z,4.97
2018-12-12T05:21:47.062Z,4.97
2018-12-12T05:24:15.787Z,4.63
2018-12-12T05:26:44.074Z,4.50
2018-12-12T05:29:12.176Z,5.17
2018-12-12T05:31:40.542Z,4.77
2018-12-12T05:34:08.888Z,4.67
2018-12-12T05:36:37.064Z,7.07
2018-12-12T05:39:06.923Z,5.73
2018-12-12T05:41:35.191Z,7.27
2018-12-12T05:44:03.612Z,7.57
2018-12-12T05:46:31.927Z,6.73
2018-12-12T05:49:00.802Z,6.20
2018-12-12T05:51:28.963Z,6.93
2018-12-12T05:53:57.281Z,8.17
2018-12-12T05:56:25.491Z,6.90
2018-12-12T05:58:53.881Z,7.87
2018-12-12T06:01:22.124Z,6.90
2018-12-12T06:03:50.314Z,9.07
2018-12-12T06:06:18.501Z,6.63
2018-12-12T06:08:46.696Z,7.83
2018-12-12T06:11:14.793Z,6.90
2018-12-12T06:13:42.934Z,8.40
2018-12-12T06:16:11.225Z,8.17
2018-12-12T06:18:39.422Z,9.73
2018-12-12T06:21:07.487Z,8.53
2018-12-12T06:23:35.656Z,9.50
2018-12-12T06:26:03.853Z,12.87
2018-12-12T06:28:33.120Z,8.83
2018-12-12T06:31:02.203Z,9.77
2018-12-12T06:33:30.327Z,8.83
2018-12-12T06:35:58.935Z,8.83
2018-12-12T06:38:28.065Z,7.87
2018-12-12T06:40:56.845Z,9.13
2018-12-12T06:43:25.820Z,8.73
2018-12-12T06:45:53.909Z,7.90
2018-12-12T06:48:22.787Z,10.30
2018-12-12T06:50:51.525Z,8.50
2018-12-12T06:53:20.228Z,8.93
2018-12-12T06:55:48.376Z,9.93
2018-12-12T06:58:16.421Z,9.87
2018-12-12T07:00:44.927Z,10.07
2018-12-12T07:03:13.048Z,9.10
2018-12-12T07:05:41.507Z,8.00
2018-12-12T07:08:09.648Z,9.30
2018-12-12T07:10:37.797Z,9.90
2018-12-12T07:13:05.906Z,8.60
2018-12-12T07:15:34.049Z,9.07
2018-12-12T07:18:02.248Z,10.13
2018-12-12T07:20:30.508Z,8.70
2018-12-12T07:22:59.728Z,9.60
2018-12-12T07:25:27.952Z,8.97
2018-12-12T07:27:56.100Z,9.53
2018-12-12T07:30:25.095Z,9.77
2018-12-12T07:32:53.190Z,9.30
2018-12-12T07:35:21.342Z,9.40
2018-12-12T07:37:49.680Z,9.57
2018-12-12T07:40:17.790Z,8.33
2018-12-12T07:42:45.912Z,10.93
2018-12-12T07:45:14.167Z,9.97
2018-12-12T07:47:42.435Z,9.83
2018-12-12T07:50:11.519Z,9.57
2018-12-12T07:52:40.626Z,10.33
2018-12-12T07:55:08.898Z,10.23
2018-12-12T07:57:37.069Z,8.53
2018-12-12T08:00:06.329Z,9.63
2018-12-12T08:02:34.482Z,10.27
2018-12-12T08:05:02.753Z,8.53
2018-12-12T08:07:30.933Z,8.07
2018-12-12T08:09:59.103Z,9.47
2018-12-12T08:12:27.413Z,8.27
2018-12-12T08:14:55.620Z,8.50
2018-12-12T08:17:24.473Z,9.03
2018-12-12T08:19:52.595Z,8.37
2018-12-12T08:22:20.705Z,9.07
2018-12-12T08:24:48.916Z,8.70
2018-12-12T08:27:17.236Z,7.67
2018-12-12T08:29:45.451Z,8.77
2018-12-12T08:32:13.768Z,8.30
2018-12-12T08:34:41.922Z,8.40
2018-12-12T08:37:10.183Z,8.00
2018-12-12T08:39:38.381Z,12.43
2018-12-12T08:42:06.557Z,9.33
2018-12-12T08:44:34.716Z,7.80
2018-12-12T08:47:03.062Z,8.77
2018-12-12T08:49:31.198Z,8.13
2018-12-12T08:51:59.312Z,7.23
2018-12-12T08:54:27.475Z,7.17
2018-12-12T08:56:56.391Z,8.20
2018-12-12T08:59:24.788Z,7.40
2018-12-12T09:01:52.946Z,7.47
2018-12-12T09:04:21.274Z,9.17
2018-12-12T09:06:49.670Z,9.53
2018-12-12T09:09:17.906Z,8.23
2018-12-12T09:11:46.312Z,8.87
2018-12-12T09:14:14.562Z,8.57
2018-12-12T09:16:43.611Z,7.30
2018-12-12T09:19:12.026Z,7.37
2018-12-12T09:21:40.199Z,8.33
2018-12-12T09:24:08.379Z,8.63
2018-12-12T09:26:36.494Z,8.27
2018-12-12T09:29:04.758Z,8.53
2018-12-12T09:31:32.874Z,7.53
2018-12-12T09:34:01.032Z,10.10
2018-12-12T09:36:29.334Z,8.13
2018-12-12T09:38:57.419Z,7.67
2018-12-12T09:41:25.508Z,8.57
2018-12-12T09:43:53.819Z,8.17
2018-12-12T09:46:22.019Z,10.90
2018-12-12T09:48:50.147Z,7.57
2018-12-12T09:51:18.299Z,8.30
2018-12-12T09:53:48.604Z,10.37
2018-12-12T09:56:16.829Z,9.73
2018-12-12T09:58:45.049Z,7.83
2018-12-12T10:01:13.265Z,9.00
2018-12-12T10:03:41.435Z,11.00
2018-12-12T10:06:09.596Z,8.87
2018-12-12T10:08:37.811Z,9.13
2018-12-12T10:11:05.954Z,8.43
2018-12-12T10:13:34.148Z,7.93
2018-12-12T10:16:03.021Z,8.27
2018-12-12T10:18:31.345Z,8.03
2018-12-12T10:20:59.480Z,8.30
2018-12-12T10:26:15.869Z,7.67
2018-12-12T10:28:44.064Z,7.87
2018-12-12T10:31:12.241Z,7.23
2018-12-12T10:33:40.392Z,7.93
2018-12-12T10:36:08.567Z,8.37
2018-12-12T10:38:36.691Z,7.03
2018-12-12T10:41:04.847Z,8.00
2018-12-12T10:43:33.079Z,8.83
2018-12-12T10:46:01.233Z,8.27
2018-12-12T10:48:29.396Z,6.90
2018-12-12T10:50:57.533Z,9.43
2018-12-12T10:53:25.746Z,9.00
2018-12-12T10:55:53.920Z,7.63
2018-12-12T10:58:22.073Z,8.47
2018-12-12T11:00:55.753Z,7.53
2018-12-12T11:03:44.213Z,8.43
2018-12-12T11:06:09.927Z,22.50
2018-12-12T11:08:38.870Z,10.43
2018-12-12T11:11:07.173Z,7.53
2018-12-12T11:13:35.259Z,8.30
2018-12-12T11:16:03.418Z,8.43
2018-12-12T11:18:31.671Z,9.03
2018-12-12T11:20:59.847Z,8.43
2018-12-12T11:23:27.959Z,11.30
2018-12-12T11:25:56.076Z,8.67
2018-12-12T11:28:24.215Z,7.90
2018-12-12T11:30:52.362Z,8.90
2018-12-12T11:33:20.608Z,9.60
2018-12-12T11:35:49.706Z,7.83
2018-12-12T11:38:17.880Z,9.53
2018-12-12T11:40:46.156Z,8.53
2018-12-12T11:43:15.162Z,9.23
2018-12-12T11:45:43.328Z,8.30
2018-12-12T11:48:11.626Z,8.50
2018-12-12T11:50:39.750Z,9.30
2018-12-12T11:53:07.892Z,7.90
2018-12-12T11:55:36.046Z,9.30
2018-12-12T11:58:04.352Z,10.47
2018-12-12T12:00:32.494Z,8.13
2018-12-12T12:03:00.671Z,9.37
2018-12-12T12:05:28.842Z,7.33
2018-12-12T12:07:56.927Z,9.10
2018-12-12T12:10:25.235Z,8.20
2018-12-12T12:13:00.372Z,8.00
2018-12-12T12:15:28.506Z,8.63
2018-12-12T12:17:56.676Z,8.90
2018-12-12T12:20:24.827Z,8.50
2018-12-12T12:22:53.990Z,9.90
2018-12-12T12:25:22.164Z,10.03
2018-12-12T12:27:50.512Z,11.13
2018-12-12T12:30:18.829Z,8.87
2018-12-12T12:32:47.016Z,8.63
2018-12-12T12:35:15.207Z,11.37
2018-12-12T12:37:46.379Z,10.53
2018-12-12T12:40:15.001Z,9.70
2018-12-12T12:42:43.417Z,8.60
2018-12-12T12:45:11.600Z,9.50
2018-12-12T12:47:39.810Z,9.43
2018-12-12T12:50:08.439Z,9.50
2018-12-12T12:52:36.626Z,10.03
2018-12-12T12:55:05.559Z,10.27
2018-12-12T12:57:34.258Z,11.17
2018-12-12T13:00:02.708Z,10.77
2018-12-12T13:02:30.881Z,9.63
2018-12-12T13:04:58.987Z,13.93
2018-12-12T13:07:27.070Z,10.43
2018-12-12T13:09:55.237Z,10.40
2018-12-12T13:12:23.476Z,12.17
2018-12-12T13:14:51.740Z,10.20
2018-12-12T13:17:19.906Z,12.47
2018-12-12T13:19:48.016Z,10.90
2018-12-12T13:22:16.213Z,10.83
2018-12-12T13:24:44.378Z,10.87
2018-12-12T13:27:12.523Z,11.10
2018-12-12T13:29:40.606Z,10.73
2018-12-12T13:32:08.739Z,11.43
2018-12-12T13:34:37.241Z,10.43
2018-12-12T13:37:05.598Z,10.37
2018-12-12T13:39:33.759Z,7.97
2018-12-12T13:42:01.896Z,9.27
2018-12-12T13:44:31.058Z,10.60
2018-12-12T13:46:59.185Z,11.60
2018-12-12T13:49:27.363Z,13.27
2018-12-12T13:51:55.557Z,11.83
2018-12-12T13:54:23.729Z,10.60
2018-12-12T13:56:51.877Z,12.00
2018-12-12T13:59:20.957Z,13.37
2018-12-12T14:01:49.777Z,13.23
2018-12-12T14:04:22.795Z,12.73
2018-12-12T14:06:48.070Z,13.07
2018-12-12T14:09:16.229Z,14.33
2018-12-12T14:11:44.483Z,12.23
2018-12-12T14:14:12.653Z,12.30
2018-12-12T14:16:41.173Z,14.27
2018-12-12T14:19:09.378Z,16.20
2018-12-12T14:21:37.635Z,13.97
2018-12-12T14:24:05.921Z,16.13
2018-12-12T14:26:34.778Z,13.23
2018-12-12T14:29:03.964Z,13.43
2018-12-12T14:31:32.108Z,11.87
2018-12-12T14:34:03.275Z,13.23
2018-12-12T14:36:31.530Z,13.33
2018-12-12T14:39:00.466Z,13.20
2018-12-12T14:41:28.618Z,12.80
2018-12-12T14:43:56.772Z,12.13
2018-12-12T14:46:25.696Z,14.70
2018-12-12T14:48:54.564Z,13.90
2018-12-12T14:51:22.852Z,12.10
2018-12-12T14:53:51.123Z,13.60
2018-12-12T14:56:19.394Z,11.87
2018-12-12T14:58:47.680Z,11.50
2018-12-12T15:01:15.866Z,10.90
2018-12-12T15:03:45.771Z,10.40
2018-12-12T15:06:14.374Z,10.73
2018-12-12T15:08:42.504Z,11.50
2018-12-12T15:11:10.661Z,10.53
2018-12-12T15:13:38.852Z,11.63
2018-12-12T15:16:07.078Z,10.10
2018-12-12T15:18:35.245Z,10.40
2018-12-12T15:21:03.605Z,9.70
2018-12-12T15:23:31.822Z,9.90
2018-12-12T15:25:59.973Z,9.87
2018-12-12T15:28:28.173Z,10.40
2018-12-12T15:30:56.348Z,10.20
2018-12-12T15:33:24.442Z,11.67
2018-12-12T15:35:52.873Z,8.27
2018-12-12T15:38:21.023Z,9.57
2018-12-12T15:40:49.166Z,10.07
2018-12-12T15:43:17.323Z,7.33
2018-12-12T15:45:45.479Z,8.27
2018-12-12T15:48:13.684Z,7.23
2018-12-12T15:50:41.785Z,8.20
2018-12-12T15:53:10.079Z,8.83
2018-12-12T15:55:38.226Z,8.37
2018-12-12T15:58:06.443Z,9.43
2018-12-12T16:00:35.917Z,13.00
2018-12-12T16:03:05.146Z,11.20
2018-12-12T16:05:33.465Z,10.70
2018-12-12T16:08:01.627Z,11.13
2018-12-12T16:10:29.890Z,11.80
2018-12-12T16:12:58.086Z,11.27
2018-12-12T16:15:26.288Z,11.60
2018-12-12T16:17:55.428Z,12.53
2018-12-12T16:20:23.588Z,13.23
2018-12-12T16:22:51.735Z,15.07
2018-12-12T16:25:19.880Z,12.07
2018-12-12T16:27:48.004Z,13.37
2018-12-12T16:30:16.226Z,12.97
2018-12-12T16:32:51.078Z,15.37
2018-12-12T16:35:19.254Z,13.90
2018-12-12T16:37:47.604Z,13.43
2018-12-12T16:40:16.426Z,12.80
2018-12-12T16:42:45.530Z,13.90
2018-12-12T16:45:13.924Z,13.77
2018-12-12T16:47:43.185Z,14.73
2018-12-12T16:50:11.720Z,13.47
2018-12-12T16:52:39.870Z,13.03
2018-12-12T16:55:08.312Z,11.83
2018-12-12T16:57:36.474Z,11.03
2018-12-12T17:00:08.178Z,13.90
2018-12-12T17:02:36.918Z,14.40
2018-12-12T17:05:05.604Z,12.77
2018-12-12T17:07:34.199Z,12.93
2018-12-12T17:10:04.602Z,12.23
2018-12-12T17:12:32.761Z,13.43
2018-12-12T17:15:01.616Z,14.00
2018-12-12T17:17:29.736Z,12.63
2018-12-12T17:19:58.061Z,13.83
2018-12-12T17:22:26.443Z,12.53
2018-12-12T17:24:54.640Z,15.90
2018-12-12T17:27:23.538Z,14.60
2018-12-12T17:29:51.710Z,14.70
2018-12-12T17:32:19.857Z,13.73
2018-12-12T17:34:47.990Z,14.07
2018-12-12T17:37:16.117Z,15.90
2018-12-12T17:39:44.277Z,14.37
2018-12-12T17:42:12.499Z,13.93
2018-12-12T17:44:40.684Z,16.60
2018-12-12T17:47:08.816Z,13.23
2018-12-12T17:49:36.979Z,12.83
2018-12-12T17:52:05.197Z,14.57
2018-12-12T17:54:33.384Z,12.37
2018-12-12T17:57:01.509Z,16.77
2018-12-12T17:59:29.652Z,16.30
2018-12-12T18:01:57.782Z,16.43
2018-12-12T18:04:26.126Z,12.77
2018-12-12T18:06:54.285Z,13.43
2018-12-12T18:09:22.342Z,16.50
2018-12-12T18:11:50.609Z,16.63
2018-12-12T18:14:18.790Z,16.20
2018-12-12T18:16:46.962Z,15.00
2018-12-12T18:19:15.127Z,20.47
2018-12-12T18:21:43.276Z,17.50
2018-12-12T18:24:11.411Z,17.13
2018-12-12T18:26:39.651Z,16.87
2018-12-12T18:29:07.899Z,17.50
2018-12-12T18:31:36.116Z,19.30
2018-12-12T18:34:04.471Z,16.90
2018-12-12T18:36:32.658Z,19.97
2018-12-12T18:39:00.863Z,17.87
2018-12-12T18:41:29.066Z,22.03
2018-12-12T18:43:57.208Z,21.27
2018-12-12T18:46:25.668Z,19.83
2018-12-12T18:48:53.882Z,20.73
2018-12-12T18:51:22.112Z,18.17
2018-12-12T18:53:50.289Z,18.97
2018-12-12T18:56:18.455Z,19.57
2018-12-12T18:58:46.696Z,19.63
2018-12-12T19:01:14.878Z,19.10
2018-12-12T19:03:43.216Z,21.57
2018-12-12T19:06:11.473Z,21.10
2018-12-12T19:08:39.636Z,21.03
2018-12-12T19:11:07.921Z,19.87
2018-12-12T19:13:36.131Z,22.87
2018-12-12T19:16:04.429Z,21.90
2018-12-12T19:18:32.542Z,22.20
2018-12-12T19:21:00.797Z,24.20
2018-12-12T19:23:29.549Z,24.00
2018-12-12T19:25:57.741Z,22.17
2018-12-12T19:28:25.949Z,25.57
2018-12-12T19:30:54.157Z,29.37
2018-12-12T19:33:22.321Z,46.53
2018-12-12T19:35:50.613Z,28.00
2018-12-12T19:38:18.761Z,27.23
2018-12-12T19:40:46.958Z,25.30
2018-12-12T19:43:15.141Z,23.43
2018-12-12T19:45:43.376Z,25.47
2018-12-12T19:48:11.657Z,25.07
2018-12-12T19:50:39.843Z,26.47
2018-12-12T19:53:08.027Z,24.97
2018-12-12T19:55:36.219Z,25.67
2018-12-12T19:58:04.393Z,30.27
2018-12-12T20:00:32.546Z,25.27
2018-12-12T20:03:00.725Z,30.40
2018-12-12T20:05:28.840Z,32.40
2018-12-12T20:07:57.037Z,23.67
2018-12-12T20:13:15.001Z,25.53
2018-12-12T20:15:44.348Z,22.13
2018-12-12T20:18:12.730Z,23.10
2018-12-12T20:20:40.983Z,23.63
2018-12-12T20:23:09.359Z,23.73
2018-12-12T20:25:37.621Z,20.67
2018-12-12T20:28:06.721Z,21.50
2018-12-12T20:30:35.496Z,24.70
2018-12-12T20:33:04.212Z,20.17
2018-12-12T20:35:32.341Z,21.83
2018-12-12T20:38:00.560Z,19.57
2018-12-12T20:40:28.706Z,22.70
2018-12-12T20:42:56.937Z,24.43
2018-12-12T20:45:25.094Z,19.33
2018-12-12T20:47:53.200Z,20.00
2018-12-12T20:50:21.299Z,18.03
2018-12-12T20:52:49.486Z,17.47
2018-12-12T20:55:17.692Z,18.73
2018-12-12T20:57:45.921Z,20.27
2018-12-12T21:00:14.321Z,20.67
2018-12-12T21:02:42.439Z,17.67
2018-12-12T21:05:10.650Z,20.13
2018-12-12T21:07:38.753Z,18.10
2018-12-12T21:10:07.392Z,18.47
2018-12-12T21:12:35.495Z,17.63
2018-12-12T21:15:06.593Z,16.03
2018-12-12T21:17:34.965Z,19.47
2018-12-12T21:20:04.397Z,18.00
2018-12-12T21:22:32.527Z,17.27
2018-12-12T21:25:00.643Z,19.30
2018-12-12T21:27:28.829Z,16.33
2018-12-12T21:29:57.049Z,16.37
2018-12-12T21:32:25.363Z,15.23
2018-12-12T21:34:53.610Z,17.63
2018-12-12T21:37:21.712Z,20.53
2018-12-12T21:39:49.849Z,16.33
2018-12-12T21:42:18.038Z,17.03
2018-12-12T21:44:46.455Z,17.67
2018-12-12T21:47:14.781Z,18.37
2018-12-12T21:49:42.949Z,19.10
2018-12-12T21:52:11.189Z,19.33
2018-12-12T21:54:39.383Z,20.30
2018-12-12T21:57:08.573Z,19.50
2018-12-12T21:59:36.779Z,17.97
2018-12-12T22:02:05.234Z,22.00
2018-12-12T22:04:37.305Z,19.20
2018-12-12T22:07:03.895Z,18.60
2018-12-12T22:09:32.088Z,21.57
2018-12-12T22:12:00.185Z,21.07
2018-12-12T22:14:28.615Z,20.00
2018-12-12T22:16:56.751Z,18.87
2018-12-12T22:19:24.881Z,19.87
2018-12-12T22:21:53.019Z,20.00
2018-12-12T22:24:21.162Z,23.73
2018-12-12T22:26:49.285Z,22.30
2018-12-12T22:29:17.427Z,21.63
2018-12-12T22:31:45.598Z,21.43
2018-12-12T22:34:13.728Z,22.80
2018-12-12T22:36:42.549Z,24.30
2018-12-12T22:39:10.725Z,22.50
2018-12-12T22:41:38.891Z,22.57
2018-12-12T22:44:07.043Z,23.17
2018-12-12T22:46:35.241Z,20.93
2018-12-12T22:49:03.389Z,20.73
2018-12-12T22:51:31.539Z,23.03
2018-12-12T22:53:59.853Z,22.53
2018-12-12T22:56:28.117Z,22.50
2018-12-12T22:58:57.670Z,22.50
2018-12-12T23:01:26.867Z,23.20
2018-12-12T23:03:56.059Z,23.13
2018-12-12T23:06:24.160Z,21.70
2018-12-12T23:08:52.261Z,22.77
2018-12-12T23:11:20.570Z,25.03
2018-12-12T23:13:48.890Z,23.47
2018-12-12T23:16:17.363Z,22.33
2018-12-12T23:18:45.499Z,22.20
2018-12-12T23:21:13.686Z,24.47
2018-12-12T23:23:41.838Z,25.43
2018-12-12T23:26:09.948Z,22.27
2018-12-12T23:28:38.115Z,21.37
2018-12-12T23:31:06.237Z,25.47
2018-12-12T23:33:34.390Z,24.23
2018-12-12T23:36:02.669Z,24.10
2018-12-12T23:38:30.786Z,24.60
2018-12-12T23:40:58.934Z,22.33
2018-12-12T23:43:27.069Z,21.10
2018-12-12T23:45:55.288Z,26.60
2018-12-12T23:48:23.414Z,22.77
2018-12-12T23:50:51.533Z,25.47
2018-12-12T23:53:19.642Z,20.90
2018-12-12T23:55:47.993Z,22.90
2018-12-12T23:58:16.112Z,21.63
